createdAt,value
2017-08-22T00:00:44.944Z,996.55
2017-08-22T00:01:44.944Z,996.51
2017-08-22T00:02:44.948Z,996.5
2017-08-22T00:03:44.944Z,996.5
2017-08-22T00:04:44.951Z,996.5
2017-08-22T00:05:44.944Z,996.49
2017-08-22T00:06:44.948Z,996.48
2017-08-22T00:07:45.102Z,996.51
2017-08-22T00:08:45.069Z,996.5
2017-08-22T00:09:44.953Z,996.49
2017-08-22T00:10:44.946Z,996.51
2017-08-22T00:11:44.942Z,996.54
2017-08-22T00:12:44.951Z,996.51
2017-08-22T00:13:44.942Z,996.47
2017-08-22T00:14:44.941Z,996.49
2017-08-22T00:15:44.943Z,996.46
2017-08-22T00:16:44.941Z,996.48
2017-08-22T00:17:44.941Z,996.46
2017-08-22T00:18:44.941Z,996.47
2017-08-22T00:19:44.940Z,996.49
2017-08-22T00:20:44.941Z,996.46
2017-08-22T00:21:44.942Z,996.44
2017-08-22T00:22:44.940Z,996.42
2017-08-22T00:23:44.943Z,996.41
2017-08-22T00:24:44.942Z,996.38
2017-08-22T00:25:45.002Z,996.39
2017-08-22T00:26:45.004Z,996.37
2017-08-22T00:27:44.943Z,996.4
2017-08-22T00:28:44.942Z,996.37
2017-08-22T00:29:44.937Z,996.43
2017-08-22T00:30:44.939Z,996.39
2017-08-22T00:31:44.970Z,996.41
2017-08-22T00:32:44.937Z,996.44
2017-08-22T00:33:44.938Z,996.4
2017-08-22T00:34:44.936Z,996.39
2017-08-22T00:35:44.939Z,996.36
2017-08-22T00:36:44.935Z,996.38
2017-08-22T00:37:44.935Z,996.34
2017-08-22T00:38:44.937Z,996.37
2017-08-22T00:39:44.935Z,996.35
2017-08-22T00:40:44.937Z,996.32
2017-08-22T00:41:44.933Z,996.33
2017-08-22T00:42:44.935Z,996.28
2017-08-22T00:43:44.932Z,996.35
2017-08-22T00:44:44.932Z,996.36
2017-08-22T00:45:44.931Z,996.35
2017-08-22T00:46:44.932Z,996.37
2017-08-22T00:47:44.932Z,996.34
2017-08-22T00:48:44.931Z,996.36
2017-08-22T00:49:44.929Z,996.36
2017-08-22T00:50:44.930Z,996.39
2017-08-22T00:51:44.929Z,996.36
2017-08-22T00:52:44.929Z,996.41
2017-08-22T00:53:44.929Z,996.42
2017-08-22T00:54:44.926Z,996.41
2017-08-22T00:55:44.926Z,996.42
2017-08-22T00:56:44.925Z,996.41
2017-08-22T00:57:44.925Z,996.43
2017-08-22T00:58:44.925Z,996.41
2017-08-22T00:59:44.924Z,996.42
2017-08-22T01:00:44.924Z,996.45
2017-08-22T01:01:44.925Z,996.41
2017-08-22T01:02:44.925Z,996.39
2017-08-22T01:03:44.923Z,996.37
2017-08-22T01:04:44.922Z,996.41
2017-08-22T01:05:44.921Z,996.37
2017-08-22T01:06:44.921Z,996.35
2017-08-22T01:07:44.920Z,996.37
2017-08-22T01:08:44.920Z,996.34
2017-08-22T01:09:44.919Z,996.35
2017-08-22T01:10:44.917Z,996.37
2017-08-22T01:11:44.922Z,996.37
2017-08-22T01:12:44.918Z,996.35
2017-08-22T01:13:44.916Z,996.32
2017-08-22T01:14:44.915Z,996.32
2017-08-22T01:15:44.916Z,996.33
2017-08-22T01:16:44.914Z,996.34
2017-08-22T01:17:44.914Z,996.29
2017-08-22T01:18:44.916Z,996.31
2017-08-22T01:19:44.914Z,996.32
2017-08-22T01:20:44.913Z,996.29
2017-08-22T01:21:44.913Z,996.35
2017-08-22T01:22:44.911Z,996.33
2017-08-22T01:23:44.912Z,996.27
2017-08-22T01:24:44.911Z,996.32
2017-08-22T01:25:44.911Z,996.3
2017-08-22T01:26:44.942Z,996.27
2017-08-22T01:27:44.913Z,996.26
2017-08-22T01:28:44.907Z,996.28
2017-08-22T01:29:44.909Z,996.29
2017-08-22T01:30:44.907Z,996.32
2017-08-22T01:31:44.906Z,996.28
2017-08-22T01:32:44.906Z,996.3
2017-08-22T01:33:44.911Z,996.36
2017-08-22T01:34:44.909Z,996.34
2017-08-22T01:35:44.905Z,996.3
2017-08-22T01:36:44.906Z,996.29
2017-08-22T01:37:44.903Z,996.37
2017-08-22T01:38:44.902Z,996.35
2017-08-22T01:39:44.901Z,996.31
2017-08-22T01:40:44.901Z,996.34
2017-08-22T01:41:44.902Z,996.34
2017-08-22T01:42:44.902Z,996.32
2017-08-22T01:43:44.908Z,996.33
2017-08-22T01:44:46.955Z,996.31
2017-08-22T01:45:44.900Z,996.35
2017-08-22T01:46:44.900Z,996.37
2017-08-22T01:47:44.900Z,996.35
2017-08-22T01:48:44.898Z,996.4
2017-08-22T01:49:44.896Z,996.37
2017-08-22T01:50:44.898Z,996.4
2017-08-22T01:51:44.895Z,996.39
2017-08-22T01:52:44.899Z,996.39
2017-08-22T01:53:44.896Z,996.41
2017-08-22T01:54:44.895Z,996.35
2017-08-22T01:55:44.895Z,996.38
2017-08-22T01:56:44.895Z,996.33
2017-08-22T01:57:44.893Z,996.35
2017-08-22T01:58:44.897Z,996.38
2017-08-22T01:59:44.897Z,996.4
2017-08-22T02:00:44.897Z,996.35
2017-08-22T02:01:44.893Z,996.37
2017-08-22T02:02:44.893Z,996.38
2017-08-22T02:03:44.898Z,996.38
2017-08-22T02:04:44.891Z,996.43
2017-08-22T02:05:44.889Z,996.36
2017-08-22T02:06:44.892Z,996.38
2017-08-22T02:07:44.890Z,996.38
2017-08-22T02:08:44.889Z,996.38
2017-08-22T02:09:44.890Z,996.4
2017-08-22T02:10:44.898Z,996.34
2017-08-22T02:11:44.888Z,996.34
2017-08-22T02:12:44.889Z,996.36
2017-08-22T02:13:44.893Z,996.36
2017-08-22T02:14:44.888Z,996.34
2017-08-22T02:15:44.887Z,996.34
2017-08-22T02:16:44.887Z,996.33
2017-08-22T02:17:44.888Z,996.3
2017-08-22T02:18:44.888Z,996.31
2017-08-22T02:19:44.899Z,996.28
2017-08-22T02:20:44.885Z,996.31
2017-08-22T02:21:44.885Z,996.3
2017-08-22T02:22:44.884Z,996.26
2017-08-22T02:23:44.885Z,996.25
2017-08-22T02:24:44.885Z,996.25
2017-08-22T02:25:44.884Z,996.26
2017-08-22T02:26:44.883Z,996.21
2017-08-22T02:27:44.883Z,996.21
2017-08-22T02:28:44.894Z,996.24
2017-08-22T02:29:44.882Z,996.21
2017-08-22T02:30:44.881Z,996.24
2017-08-22T02:31:44.880Z,996.23
2017-08-22T02:32:44.883Z,996.22
2017-08-22T02:33:44.883Z,996.21
2017-08-22T02:34:44.879Z,996.22
2017-08-22T02:35:44.880Z,996.21
2017-08-22T02:36:44.879Z,996.18
2017-08-22T02:37:44.878Z,996.19
2017-08-22T02:38:44.878Z,996.15
2017-08-22T02:39:44.877Z,996.22
2017-08-22T02:40:44.878Z,996.21
2017-08-22T02:41:44.876Z,996.2
2017-08-22T02:42:44.877Z,996.22
2017-08-22T02:43:44.875Z,996.21
2017-08-22T02:44:44.884Z,996.22
2017-08-22T02:45:44.877Z,996.17
2017-08-22T02:46:44.875Z,996.2
2017-08-22T02:47:44.876Z,996.14
2017-08-22T02:48:44.877Z,996.15
2017-08-22T02:49:44.873Z,996.13
2017-08-22T02:50:44.877Z,996.15
2017-08-22T02:51:44.876Z,996.17
2017-08-22T02:52:44.874Z,996.13
2017-08-22T02:53:44.872Z,996.13
2017-08-22T02:54:44.879Z,996.11
2017-08-22T02:55:44.866Z,996.11
2017-08-22T02:56:44.869Z,996.12
2017-08-22T02:57:44.865Z,996.06
2017-08-22T02:58:44.865Z,996.11
2017-08-22T02:59:44.863Z,996.11
2017-08-22T03:00:44.863Z,996.1
2017-08-22T03:01:44.862Z,996.1
2017-08-22T03:02:44.863Z,996.11
2017-08-22T03:03:44.861Z,996.07
2017-08-22T03:04:44.859Z,996.1
2017-08-22T03:05:44.862Z,996.1
2017-08-22T03:06:44.857Z,996.07
2017-08-22T03:07:44.854Z,996.07
2017-08-22T03:08:44.856Z,996.08
2017-08-22T03:09:44.855Z,996.06
2017-08-22T03:10:44.854Z,996.09
2017-08-22T03:11:44.853Z,996.07
2017-08-22T03:12:44.852Z,996.07
2017-08-22T03:13:44.851Z,996.07
2017-08-22T03:14:44.849Z,996.12
2017-08-22T03:15:44.849Z,996.08
2017-08-22T03:16:44.850Z,996.05
2017-08-22T03:17:44.846Z,996.09
2017-08-22T03:18:44.851Z,996.11
2017-08-22T03:19:44.844Z,996.12
2017-08-22T03:20:44.844Z,996.11
2017-08-22T03:21:44.841Z,996.14
2017-08-22T03:22:44.842Z,996.1
2017-08-22T03:23:44.840Z,996.06
2017-08-22T03:24:44.837Z,996.06
2017-08-22T03:25:44.839Z,996.06
2017-08-22T03:26:44.836Z,996.07
2017-08-22T03:27:44.835Z,996.05
2017-08-22T03:28:44.834Z,996.07
2017-08-22T03:29:44.833Z,996.1
2017-08-22T03:30:44.837Z,996.1
2017-08-22T03:31:44.834Z,996.1
2017-08-22T03:32:44.833Z,996.13
2017-08-22T03:33:44.837Z,996.16
2017-08-22T03:34:44.834Z,996.13
2017-08-22T03:35:44.825Z,996.11
2017-08-22T03:36:44.824Z,996.12
2017-08-22T03:37:44.821Z,996.14
2017-08-22T03:38:44.821Z,996.15
2017-08-22T03:39:44.820Z,996.14
2017-08-22T03:40:44.818Z,996.13
2017-08-22T03:41:44.822Z,996.13
2017-08-22T03:42:44.816Z,996.13
2017-08-22T03:43:44.815Z,996.11
2017-08-22T03:44:44.837Z,996.11
2017-08-22T03:45:48.818Z,996.13
2017-08-22T03:46:44.812Z,996.14
2017-08-22T03:47:44.810Z,996.12
2017-08-22T03:48:44.810Z,996.08
2017-08-22T03:49:44.809Z,996.1
2017-08-22T03:50:44.809Z,996.08
2017-08-22T03:51:44.806Z,996.06
2017-08-22T03:52:44.809Z,996.06
2017-08-22T03:53:44.803Z,996.11
2017-08-22T03:54:44.802Z,996.07
2017-08-22T03:55:44.812Z,996.06
2017-08-22T03:56:44.800Z,996.09
2017-08-22T03:57:44.798Z,996.08
2017-08-22T03:58:44.797Z,996.08
2017-08-22T03:59:44.796Z,996.06
2017-08-22T04:00:44.795Z,996.1
2017-08-22T04:01:44.798Z,996.1
2017-08-22T04:02:44.792Z,996.08
2017-08-22T04:03:44.792Z,996.11
2017-08-22T04:04:44.789Z,996.09
2017-08-22T04:05:44.787Z,996.11
2017-08-22T04:06:44.789Z,996.09
2017-08-22T04:07:44.788Z,996.11
2017-08-22T04:08:44.787Z,996.09
2017-08-22T04:09:44.786Z,996.11
2017-08-22T04:10:44.788Z,996.08
2017-08-22T04:11:44.787Z,996.09
2017-08-22T04:12:44.791Z,996.11
2017-08-22T04:13:44.776Z,996.04
2017-08-22T04:14:44.773Z,996.04
2017-08-22T04:15:44.772Z,996.1
2017-08-22T04:16:44.780Z,996.09
2017-08-22T04:17:44.770Z,996.15
2017-08-22T04:18:44.767Z,996.08
2017-08-22T04:19:44.766Z,996.11
2017-08-22T04:20:44.765Z,996.11
2017-08-22T04:21:44.763Z,996.1
2017-08-22T04:22:44.763Z,996.12
2017-08-22T04:23:44.760Z,996.14
2017-08-22T04:24:44.760Z,996.18
2017-08-22T04:25:44.758Z,996.14
2017-08-22T04:26:44.756Z,996.18
2017-08-22T04:27:44.755Z,996.17
2017-08-22T04:28:44.754Z,996.17
2017-08-22T04:29:44.755Z,996.16
2017-08-22T04:30:44.753Z,996.14
2017-08-22T04:31:44.749Z,996.21
2017-08-22T04:32:44.749Z,996.19
2017-08-22T04:33:44.747Z,996.16
2017-08-22T04:34:44.745Z,996.23
2017-08-22T04:35:44.766Z,996.22
2017-08-22T04:36:44.741Z,996.21
2017-08-22T04:37:44.740Z,996.24
2017-08-22T04:38:44.742Z,996.16
2017-08-22T04:39:44.744Z,996.18
2017-08-22T04:40:44.741Z,996.22
2017-08-22T04:41:44.752Z,996.2
2017-08-22T04:42:44.732Z,996.23
2017-08-22T04:43:44.730Z,996.21
2017-08-22T04:44:44.729Z,996.22
2017-08-22T04:45:44.728Z,996.21
2017-08-22T04:46:45.827Z,996.23
2017-08-22T04:47:44.725Z,996.16
2017-08-22T04:48:44.725Z,996.18
2017-08-22T04:49:44.725Z,996.19
2017-08-22T04:50:44.721Z,996.21
2017-08-22T04:51:44.719Z,996.21
2017-08-22T04:52:44.716Z,996.21
2017-08-22T04:53:44.717Z,996.21
2017-08-22T04:54:44.717Z,996.19
2017-08-22T04:55:44.714Z,996.22
2017-08-22T04:56:44.712Z,996.25
2017-08-22T04:57:44.710Z,996.28
2017-08-22T04:58:44.710Z,996.33
2017-08-22T04:59:44.707Z,996.37
2017-08-22T05:00:44.709Z,996.34
2017-08-22T05:01:44.707Z,996.35
2017-08-22T05:02:44.712Z,996.34
2017-08-22T05:03:44.704Z,996.33
2017-08-22T05:04:44.702Z,996.33
2017-08-22T05:05:44.706Z,996.38
2017-08-22T05:06:44.701Z,996.35
2017-08-22T05:07:44.703Z,996.37
2017-08-22T05:08:44.698Z,996.37
2017-08-22T05:09:44.699Z,996.31
2017-08-22T05:10:44.701Z,996.34
2017-08-22T05:11:44.704Z,996.33
2017-08-22T05:12:44.703Z,996.31
2017-08-22T05:13:44.697Z,996.32
2017-08-22T05:14:44.698Z,996.28
2017-08-22T05:15:44.697Z,996.32
2017-08-22T05:16:44.698Z,996.35
2017-08-22T05:17:44.698Z,996.35
2017-08-22T05:18:44.701Z,996.37
2017-08-22T05:19:44.700Z,996.35
2017-08-22T05:20:44.705Z,996.38
2017-08-22T05:21:44.701Z,996.35
2017-08-22T05:22:44.704Z,996.37
2017-08-22T05:23:44.704Z,996.36
2017-08-22T05:24:44.704Z,996.35
2017-08-22T05:25:44.710Z,996.38
2017-08-22T05:26:44.705Z,996.36
2017-08-22T05:27:44.705Z,996.37
2017-08-22T05:28:44.710Z,996.39
2017-08-22T05:29:44.707Z,996.46
2017-08-22T05:30:44.708Z,996.35
2017-08-22T05:31:44.711Z,996.31
2017-08-22T05:32:44.709Z,996.36
2017-08-22T05:33:44.715Z,996.41
2017-08-22T05:34:44.710Z,996.38
2017-08-22T05:35:44.714Z,996.35
2017-08-22T05:36:44.712Z,996.39
2017-08-22T05:37:44.714Z,996.46
2017-08-22T05:38:44.715Z,996.43
2017-08-22T05:39:44.716Z,996.4
2017-08-22T05:40:44.716Z,996.47
2017-08-22T05:41:44.717Z,996.44
2017-08-22T05:42:44.720Z,996.45
2017-08-22T05:43:44.719Z,996.4
2017-08-22T05:44:44.721Z,996.49
2017-08-22T05:45:44.724Z,996.51
2017-08-22T05:46:44.727Z,996.5
2017-08-22T05:47:47.629Z,996.46
2017-08-22T05:48:44.728Z,996.42
2017-08-22T05:49:44.730Z,996.48
2017-08-22T05:50:44.733Z,996.47
2017-08-22T05:51:44.734Z,996.48
2017-08-22T05:52:44.736Z,996.43
2017-08-22T05:53:44.739Z,996.4
2017-08-22T05:54:44.742Z,996.4
2017-08-22T05:55:44.742Z,996.39
2017-08-22T05:56:44.745Z,996.45
2017-08-22T05:57:44.747Z,996.45
2017-08-22T05:58:44.761Z,996.41
2017-08-22T05:59:44.751Z,996.46
2017-08-22T06:00:44.754Z,996.47
2017-08-22T06:01:44.755Z,996.54
2017-08-22T06:02:44.757Z,996.42
2017-08-22T06:03:44.760Z,996.47
2017-08-22T06:04:44.763Z,996.44
2017-08-22T06:05:44.764Z,996.45
2017-08-22T06:06:44.766Z,996.43
2017-08-22T06:07:44.769Z,996.46
2017-08-22T06:08:44.776Z,996.44
2017-08-22T06:09:44.775Z,996.44
2017-08-22T06:10:44.776Z,996.42
2017-08-22T06:11:44.778Z,996.37
2017-08-22T06:12:44.779Z,996.36
2017-08-22T06:13:44.783Z,996.36
2017-08-22T06:14:44.784Z,996.37
2017-08-22T06:15:44.787Z,996.36
2017-08-22T06:16:44.786Z,996.36
2017-08-22T06:17:44.790Z,996.33
2017-08-22T06:18:44.794Z,996.33
2017-08-22T06:19:44.795Z,996.38
2017-08-22T06:20:44.796Z,996.37
2017-08-22T06:21:44.798Z,996.31
2017-08-22T06:22:44.799Z,996.31
2017-08-22T06:23:44.802Z,996.34
2017-08-22T06:24:44.804Z,996.32
2017-08-22T06:25:44.806Z,996.2
2017-08-22T06:26:44.809Z,996.21
2017-08-22T06:27:44.810Z,996.21
2017-08-22T06:28:44.813Z,996.16
2017-08-22T06:29:44.815Z,996.21
2017-08-22T06:30:44.817Z,996.15
2017-08-22T06:31:44.823Z,996.15
2017-08-22T06:32:44.823Z,996.19
2017-08-22T06:33:44.825Z,996.14
2017-08-22T06:34:44.829Z,996.13
2017-08-22T06:35:44.830Z,996.16
2017-08-22T06:36:44.832Z,996.14
2017-08-22T06:37:44.840Z,996.11
2017-08-22T06:38:44.840Z,996.15
2017-08-22T06:39:44.840Z,996.16
2017-08-22T06:40:44.843Z,996.15
2017-08-22T06:41:44.845Z,996.16
2017-08-22T06:42:44.847Z,996.16
2017-08-22T06:43:44.850Z,996.16
2017-08-22T06:44:44.867Z,996.16
2017-08-22T06:45:44.852Z,996.19
2017-08-22T06:46:44.856Z,996.16
2017-08-22T06:47:44.867Z,996.14
2017-08-22T06:48:44.868Z,996.15
2017-08-22T06:49:44.870Z,996.11
2017-08-22T06:50:44.868Z,996.13
2017-08-22T06:51:44.871Z,996.12
2017-08-22T06:52:44.871Z,996.09
2017-08-22T06:53:44.881Z,996.06
2017-08-22T06:54:44.875Z,995.99
2017-08-22T06:55:44.882Z,996.06
2017-08-22T06:56:44.881Z,996.03
2017-08-22T06:57:44.885Z,995.99
2017-08-22T06:58:44.884Z,995.99
2017-08-22T06:59:44.894Z,995.99
2017-08-22T07:00:44.887Z,996.02
2017-08-22T07:01:44.896Z,996.02
2017-08-22T07:02:44.893Z,996.07
2017-08-22T07:03:44.896Z,996.01
2017-08-22T07:04:44.897Z,996.08
2017-08-22T07:05:44.902Z,996.01
2017-08-22T07:06:44.906Z,995.96
2017-08-22T07:07:44.908Z,995.97
2017-08-22T07:08:44.912Z,996
2017-08-22T07:09:44.916Z,995.99
2017-08-22T07:10:44.929Z,995.98
2017-08-22T07:11:44.933Z,996.01
2017-08-22T07:12:44.936Z,995.95
2017-08-22T07:13:44.935Z,995.92
2017-08-22T07:14:44.941Z,995.95
2017-08-22T07:15:44.944Z,995.92
2017-08-22T07:16:44.951Z,995.9
2017-08-22T07:17:44.957Z,995.92
2017-08-22T07:18:46.770Z,995.93
2017-08-22T07:19:44.967Z,995.91
2017-08-22T07:20:44.974Z,995.86
2017-08-22T07:21:44.982Z,995.9
2017-08-22T07:22:44.986Z,995.92
2017-08-22T07:23:44.995Z,995.87
2017-08-22T07:24:45.003Z,995.89
2017-08-22T07:25:45.005Z,995.89
2017-08-22T07:26:45.011Z,995.88
2017-08-22T07:27:45.019Z,995.89
2017-08-22T07:28:45.024Z,995.85
2017-08-22T07:29:45.030Z,995.83
2017-08-22T07:30:45.036Z,995.79
2017-08-22T07:31:45.043Z,995.77
2017-08-22T07:32:45.058Z,995.77
2017-08-22T07:33:45.062Z,995.76
2017-08-22T07:34:45.062Z,995.76
2017-08-22T07:35:45.077Z,995.75
2017-08-22T07:36:45.074Z,995.72
2017-08-22T07:37:45.080Z,995.76
2017-08-22T07:38:45.086Z,995.71
2017-08-22T07:39:45.091Z,995.8
2017-08-22T07:40:45.096Z,995.75
2017-08-22T07:41:45.101Z,995.75
2017-08-22T07:42:45.106Z,995.74
2017-08-22T07:43:45.111Z,995.66
2017-08-22T07:44:45.115Z,995.67
2017-08-22T07:45:45.125Z,995.63
2017-08-22T07:46:45.129Z,995.62
2017-08-22T07:47:45.136Z,995.67
2017-08-22T07:48:45.135Z,995.61
2017-08-22T07:49:45.140Z,995.65
2017-08-22T07:50:45.143Z,995.67
2017-08-22T07:51:45.147Z,995.65
2017-08-22T07:52:45.152Z,995.67
2017-08-22T07:53:45.157Z,995.66
2017-08-22T07:54:45.181Z,995.64
2017-08-22T07:55:45.168Z,995.62
2017-08-22T07:56:45.174Z,995.56
2017-08-22T07:57:45.179Z,995.54
2017-08-22T07:58:45.182Z,995.54
2017-08-22T07:59:45.189Z,995.61
2017-08-22T08:00:45.194Z,995.57
2017-08-22T08:01:45.200Z,995.59
2017-08-22T08:02:45.207Z,995.64
2017-08-22T08:03:45.209Z,995.59
2017-08-22T08:04:45.219Z,995.59
2017-08-22T08:05:45.223Z,995.58
2017-08-22T08:06:45.226Z,995.58
2017-08-22T08:07:45.232Z,995.62
2017-08-22T08:08:45.239Z,995.61
2017-08-22T08:09:45.245Z,995.57
2017-08-22T08:10:45.249Z,995.57
2017-08-22T08:11:45.258Z,995.57
2017-08-22T08:12:45.264Z,995.56
2017-08-22T08:13:45.270Z,995.52
2017-08-22T08:14:45.277Z,995.49
2017-08-22T08:15:45.283Z,995.49
2017-08-22T08:16:45.290Z,995.52
2017-08-22T08:17:45.297Z,995.49
2017-08-22T08:18:45.305Z,995.52
2017-08-22T08:19:45.310Z,995.48
2017-08-22T08:20:45.318Z,995.49
2017-08-22T08:21:45.327Z,995.48
2017-08-22T08:22:45.330Z,995.52
2017-08-22T08:23:45.339Z,995.52
2017-08-22T08:24:45.343Z,995.52
2017-08-22T08:25:45.350Z,995.52
2017-08-22T08:26:45.356Z,995.55
2017-08-22T08:27:45.363Z,995.47
2017-08-22T08:28:45.371Z,995.48
2017-08-22T08:29:45.378Z,995.48
2017-08-22T08:30:45.384Z,995.47
2017-08-22T08:31:45.396Z,995.5
2017-08-22T08:32:45.400Z,995.48
2017-08-22T08:33:45.405Z,995.51
2017-08-22T08:34:45.413Z,995.44
2017-08-22T08:35:45.417Z,995.46
2017-08-22T08:36:45.427Z,995.47
2017-08-22T08:37:45.431Z,995.49
2017-08-22T08:38:45.441Z,995.44
2017-08-22T08:39:45.446Z,995.45
2017-08-22T08:40:45.459Z,995.42
2017-08-22T08:41:45.461Z,995.38
2017-08-22T08:42:45.465Z,995.4
2017-08-22T08:43:45.474Z,995.38
2017-08-22T08:44:45.480Z,995.41
2017-08-22T08:45:45.488Z,995.37
2017-08-22T08:46:45.495Z,995.37
2017-08-22T08:47:45.500Z,995.33
2017-08-22T08:48:45.508Z,995.36
2017-08-22T08:49:45.514Z,995.32
2017-08-22T08:50:45.521Z,995.32
2017-08-22T08:51:45.531Z,995.32
2017-08-22T08:52:45.553Z,995.3
2017-08-22T08:53:45.540Z,995.3
2017-08-22T08:54:45.557Z,995.35
2017-08-22T08:55:45.554Z,995.39
2017-08-22T08:56:45.566Z,995.34
2017-08-22T08:57:45.562Z,995.32
2017-08-22T08:58:45.571Z,995.34
2017-08-22T08:59:45.581Z,995.33
2017-08-22T09:00:45.580Z,995.31
2017-08-22T09:01:45.586Z,995.31
2017-08-22T09:02:45.595Z,995.26
2017-08-22T09:03:45.595Z,995.26
2017-08-22T09:04:45.599Z,995.24
2017-08-22T09:05:45.605Z,995.23
2017-08-22T09:06:45.611Z,995.2
2017-08-22T09:07:45.615Z,995.18
2017-08-22T09:08:45.623Z,995.17
2017-08-22T09:09:45.623Z,995.21
2017-08-22T09:10:45.628Z,995.2
2017-08-22T09:11:45.637Z,995.18
2017-08-22T09:12:45.636Z,995.23
2017-08-22T09:13:45.643Z,995.21
2017-08-22T09:14:45.645Z,995.24
2017-08-22T09:15:45.651Z,995.23
2017-08-22T09:16:45.656Z,995.2
2017-08-22T09:17:45.658Z,995.17
2017-08-22T09:18:45.666Z,995.2
2017-08-22T09:19:45.718Z,995.2
2017-08-22T09:20:45.672Z,995.21
2017-08-22T09:21:45.677Z,995.2
2017-08-22T09:22:45.683Z,995.23
2017-08-22T09:23:45.686Z,995.18
2017-08-22T09:24:45.690Z,995.22
2017-08-22T09:25:45.694Z,995.19
2017-08-22T09:26:45.697Z,995.18
2017-08-22T09:27:45.704Z,995.1
2017-08-22T09:28:45.709Z,995.16
2017-08-22T09:29:45.712Z,995.17
2017-08-22T09:30:45.720Z,995.17
2017-08-22T09:31:45.724Z,995.12
2017-08-22T09:32:45.725Z,995.16
2017-08-22T09:33:45.729Z,995.18
2017-08-22T09:34:50.587Z,995.14
2017-08-22T09:35:45.737Z,995.12
2017-08-22T09:36:45.744Z,995.1
2017-08-22T09:37:45.746Z,995.06
2017-08-22T09:38:45.750Z,995.11
2017-08-22T09:39:45.753Z,995.08
2017-08-22T09:40:45.761Z,995.04
2017-08-22T09:41:45.763Z,995.02
2017-08-22T09:42:45.767Z,995.04
2017-08-22T09:43:45.794Z,995.02
2017-08-22T09:44:45.776Z,995
2017-08-22T09:45:45.781Z,995
2017-08-22T09:46:45.786Z,994.95
2017-08-22T09:47:45.792Z,994.91
2017-08-22T09:48:45.794Z,994.9
2017-08-22T09:49:45.798Z,994.93
2017-08-22T09:50:45.806Z,994.92
2017-08-22T09:51:45.808Z,994.89
2017-08-22T09:52:45.810Z,994.91
2017-08-22T09:53:45.819Z,994.85
2017-08-22T09:54:45.822Z,994.89
2017-08-22T09:55:45.825Z,994.89
2017-08-22T09:56:45.830Z,994.85
2017-08-22T09:57:45.835Z,994.91
2017-08-22T09:58:45.841Z,994.92
2017-08-22T09:59:45.844Z,994.89
2017-08-22T10:00:45.848Z,994.9
2017-08-22T10:01:45.854Z,994.86
2017-08-22T10:02:45.860Z,994.82
2017-08-22T10:03:45.864Z,994.77
2017-08-22T10:04:45.870Z,994.77
2017-08-22T10:05:45.874Z,994.76
2017-08-22T10:06:45.879Z,994.75
2017-08-22T10:07:45.889Z,994.74
2017-08-22T10:08:45.889Z,994.72
2017-08-22T10:09:45.896Z,994.71
2017-08-22T10:10:45.896Z,994.7
2017-08-22T10:11:45.902Z,994.75
2017-08-22T10:12:45.906Z,994.74
2017-08-22T10:13:45.910Z,994.8
2017-08-22T10:14:45.915Z,994.75
2017-08-22T10:15:45.934Z,994.78
2017-08-22T10:16:45.925Z,994.77
2017-08-22T10:17:45.929Z,994.8
2017-08-22T10:18:45.934Z,994.78
2017-08-22T10:19:45.939Z,994.78
2017-08-22T10:20:45.944Z,994.79
2017-08-22T10:21:45.947Z,994.79
2017-08-22T10:22:45.953Z,994.8
2017-08-22T10:23:45.963Z,994.76
2017-08-22T10:24:45.965Z,994.72
2017-08-22T10:25:45.968Z,994.68
2017-08-22T10:26:45.972Z,994.69
2017-08-22T10:27:45.976Z,994.69
2017-08-22T10:28:45.981Z,994.72
2017-08-22T10:29:45.985Z,994.7
2017-08-22T10:30:45.992Z,994.71
2017-08-22T10:31:45.996Z,994.66
2017-08-22T10:32:46.005Z,994.65
2017-08-22T10:33:46.002Z,994.64
2017-08-22T10:34:46.009Z,994.67
2017-08-22T10:35:46.020Z,994.63
2017-08-22T10:36:46.019Z,994.63
2017-08-22T10:37:46.023Z,994.56
2017-08-22T10:38:46.033Z,994.62
2017-08-22T10:39:46.032Z,994.6
2017-08-22T10:40:46.037Z,994.66
2017-08-22T10:41:46.042Z,994.62
2017-08-22T10:42:46.050Z,994.64
2017-08-22T10:43:46.052Z,994.68
2017-08-22T10:44:46.058Z,994.69
2017-08-22T10:45:46.060Z,994.64
2017-08-22T10:46:46.072Z,994.65
2017-08-22T10:47:46.072Z,994.65
2017-08-22T10:48:46.081Z,994.6
2017-08-22T10:49:46.085Z,994.64
2017-08-22T10:50:46.088Z,994.64
2017-08-22T10:51:46.091Z,994.59
2017-08-22T10:52:46.096Z,994.65
2017-08-22T10:53:46.102Z,994.62
2017-08-22T10:54:46.106Z,994.62
2017-08-22T10:55:46.110Z,994.6
2017-08-22T10:56:46.212Z,994.61
2017-08-22T10:57:46.121Z,994.6
2017-08-22T10:58:46.126Z,994.59
2017-08-22T10:59:46.132Z,994.58
2017-08-22T11:00:46.136Z,994.55
2017-08-22T11:01:46.140Z,994.55
2017-08-22T11:02:46.151Z,994.55
2017-08-22T11:03:46.151Z,994.58
2017-08-22T11:04:46.157Z,994.56
2017-08-22T11:05:46.411Z,994.56
2017-08-22T11:06:46.167Z,994.59
2017-08-22T11:07:46.173Z,994.61
2017-08-22T11:08:46.175Z,994.59
2017-08-22T11:09:46.181Z,994.56
2017-08-22T11:10:46.187Z,994.59
2017-08-22T11:11:46.193Z,994.57
2017-08-22T11:12:46.195Z,994.53
2017-08-22T11:13:46.209Z,994.55
2017-08-22T11:14:46.205Z,994.56
2017-08-22T11:15:46.213Z,994.51
2017-08-22T11:16:46.216Z,994.54
2017-08-22T11:17:46.221Z,994.51
2017-08-22T11:18:46.227Z,994.53
2017-08-22T11:19:46.230Z,994.45
2017-08-22T11:20:46.256Z,994.48
2017-08-22T11:21:46.239Z,994.58
2017-08-22T11:22:46.248Z,994.54
2017-08-22T11:23:46.250Z,994.55
2017-08-22T11:24:46.256Z,994.51
2017-08-22T11:25:46.260Z,994.49
2017-08-22T11:26:46.269Z,994.47
2017-08-22T11:27:46.269Z,994.45
2017-08-22T11:28:46.278Z,994.5
2017-08-22T11:29:46.277Z,994.49
2017-08-22T11:30:46.281Z,994.47
2017-08-22T11:31:46.288Z,994.48
2017-08-22T11:32:46.294Z,994.54
2017-08-22T11:33:46.296Z,994.42
2017-08-22T11:34:46.300Z,994.46
2017-08-22T11:35:46.305Z,994.45
2017-08-22T11:36:46.310Z,994.41
2017-08-22T11:37:46.336Z,994.38
2017-08-22T11:38:46.323Z,994.51
2017-08-22T11:39:46.325Z,994.38
2017-08-22T11:40:46.332Z,994.44
2017-08-22T11:41:46.334Z,994.4
2017-08-22T11:42:46.341Z,994.32
2017-08-22T11:43:46.344Z,994.28
2017-08-22T11:44:46.350Z,994.31
2017-08-22T11:45:46.353Z,994.29
2017-08-22T11:46:46.364Z,994.27
2017-08-22T11:47:46.364Z,994.22
2017-08-22T11:48:46.368Z,994.18
2017-08-22T11:49:46.372Z,994.23
2017-08-22T11:50:46.376Z,994.2
2017-08-22T11:51:46.383Z,994.22
2017-08-22T11:52:46.389Z,994.18
2017-08-22T11:53:46.399Z,994.17
2017-08-22T11:54:46.396Z,994.14
2017-08-22T11:55:46.401Z,994.16
2017-08-22T11:56:46.409Z,994.12
2017-08-22T11:57:46.410Z,994.12
2017-08-22T11:58:46.416Z,994.15
2017-08-22T11:59:46.419Z,994.11
2017-08-22T12:00:46.428Z,994.1
2017-08-22T12:01:46.430Z,994.1
2017-08-22T12:02:46.440Z,994.07
2017-08-22T12:03:46.439Z,994.07
2017-08-22T12:04:46.446Z,994.04
2017-08-22T12:05:46.448Z,994.1
2017-08-22T12:06:46.454Z,994.05
2017-08-22T12:07:46.460Z,994.05
2017-08-22T12:08:46.462Z,994.01
2017-08-22T12:09:46.468Z,993.95
2017-08-22T12:10:46.472Z,993.94
2017-08-22T12:11:46.477Z,993.93
2017-08-22T12:12:46.483Z,993.9
2017-08-22T12:13:46.487Z,993.89
2017-08-22T12:14:46.492Z,993.87
2017-08-22T12:15:46.496Z,993.87
2017-08-22T12:16:46.502Z,993.85
2017-08-22T12:17:46.507Z,993.88
2017-08-22T12:18:46.510Z,993.85
2017-08-22T12:19:46.516Z,993.84
2017-08-22T12:20:46.521Z,993.89
2017-08-22T12:21:46.526Z,993.84
2017-08-22T12:22:46.529Z,993.85
2017-08-22T12:23:46.534Z,993.82
2017-08-22T12:24:46.541Z,993.8
2017-08-22T12:25:46.550Z,993.79
2017-08-22T12:26:46.551Z,993.84
2017-08-22T12:27:46.556Z,993.82
2017-08-22T12:28:46.597Z,993.8
2017-08-22T12:29:46.563Z,993.82
2017-08-22T12:30:46.569Z,993.85
2017-08-22T12:31:46.574Z,993.79